Flight Track Log - Related Links

Times and Time Zones

All times are in EDT time to prevent confusion due to time zone crossing. See the CCA4482 flight status page for this flight to view local times or setup timezone preferences in your user account.

Time Position Orientation Groundspeed Altitude Reporting Facility
EDT Latitude Longitude Course Direction KTS MPH feet Rate Location/Type
Mon 09:29:00 AM 32.1534 103.7660 174° South  Level Estimated
Mon 09:30:00 AM 32.0993 103.7723 174° South  Level Estimated
Mon 09:31:00 AM 32.0452 103.7786 174° South  Level Estimated
Mon 09:32:00 AM 31.9911 103.7849 174° South  Level Estimated
Mon 09:33:00 AM 31.9369 103.7912 174° South  Level Estimated
Mon 09:34:00 AM 31.8828 103.7975 174° South  Level Estimated
Mon 09:35:00 AM 31.8287 103.8038 174° South  Level Estimated
Mon 09:36:00 AM 31.7745 103.8101 174° South  Level Estimated
Mon 09:37:00 AM 31.7204 103.8164 174° South  Level Estimated
Mon 09:38:00 AM 31.6663 103.8226 174° South  Level Estimated
Mon 09:39:00 AM 31.6122 103.8289 174° South  Level Estimated
Mon 09:40:00 AM 31.5580 103.8352 174° South  Level Estimated
Mon 09:41:00 AM 31.5039 103.8414 174° South  Level Estimated
Mon 09:42:00 AM 31.4498 103.8476 174° South  Level Estimated
Mon 09:43:00 AM 31.3956 103.8539 174° South  Level Estimated
Mon 09:44:00 AM 31.3415 103.8601 174° South  Level Estimated
Mon 09:45:00 AM 31.2874 103.8663 174° South  Level Estimated
Mon 09:46:00 AM 31.2332 103.8725 174° South  Level Estimated
Mon 09:47:00 AM 31.1791 103.8787 174° South  Level Estimated
Mon 09:48:00 AM 31.1250 103.8849 174° South  Level Estimated
Mon 09:49:00 AM 31.0709 103.8911 174° South  Level Estimated
Mon 09:50:00 AM 31.0167 103.8973 174° South  Level Estimated
Mon 09:51:00 AM 30.9626 103.9035 174° South  Level Estimated
Mon 09:52:00 AM 30.9085 103.9096 174° South  Level Estimated
Mon 09:53:00 AM 30.8543 103.9158 174° South  Level Estimated
Mon 09:54:00 AM 30.8002 103.9220 174° South  Level Estimated
Mon 09:55:00 AM 30.7461 103.9281 174° South  Level Estimated
Mon 09:56:00 AM 30.6919 103.9342 174° South  Level Estimated
Mon 09:57:00 AM 30.6378 103.9404 174° South  Level Estimated
Mon 09:58:00 AM 30.5837 103.9465 174° South  Level Estimated
Mon 09:59:00 AM 30.5785 103.9471 174° South  Level Estimated
Mon 10:00:00 AM 30.5785 103.9471 240° Southwest  Level Estimated
Mon 10:01:00 AM 30.5785 103.9471 240° Southwest  Level Estimated
Mon 10:02:00 AM 30.5785 103.9471 240° Southwest  Level Estimated
Mon 10:03:00 AM 30.5785 103.9471 240° Southwest  Level Estimated
Mon 10:04:00 AM 30.5785 103.9471 240° Southwest  Level Estimated
Mon 10:05:00 AM 30.5785 103.9471 240° Southwest  Level Estimated
Mon 10:06:00 AM 30.5785 103.9471 240° Southwest  Level Estimated
Mon 10:07:00 AM 30.5785 103.9471 240° Southwest  Level Estimated
Mon 10:08:00 AM 30.5785 103.9471 240° Southwest  Level Estimated
Mon 10:09:00 AM 30.5785 103.9471 240° Southwest  Level Estimated
Mon 10:10:00 AM 30.5785 103.9471 240° Southwest  Level Estimated
Mon 10:11:00 AM 30.5785 103.9471 240° Southwest  Level Estimated
Mon 10:12:00 AM 30.5785 103.9471 240° Southwest  Level Estimated
Mon 10:13:00 AM 30.5785 103.9471 240° Southwest  Level Estimated
Mon 10:14:00 AM 30.5785 103.9471 240° Southwest  Level Estimated

Login

Don't have an account? Register now (free) for customized features, flight alerts, and more!